Brunswick Golden Isles Airport
KBQK : rendu visible

Aérodrome :











RETROUVEZ-NOUS SUR...

 
LOGIN :

S'inscrire | Disclaimer

   EN    FR    IT 

 









Légende :    VFR   VFR Marginal   IFR   IFR Intensif   IFR Très Intensif
Visi : 
Plafond : 
>= 8 km
>= 3000ft
5 à 8 km
1000 à 3000 ft
1500m à 5 km
500 à 1000 ft
800 à 1500m
200 à 500 ft
< 800m
< 200 ft
Symboles :   Orages  Brouillard  Fortes neiges  Fortes précipitations  Vent > 20 kt






- Altitude de l'aérodrome : 26 ft
- Code IATA : BQK


KBQK - Brunswick Golden Isles

DERNIER METAR :
  • 100835Z AUTO 21006KT 10SM CLR 16/15 A3008 RMK AO2 T01620152

METARs EXPIRÉS :
  • 100815Z AUTO 22004KT 10SM CLR 17/15 A3008 RMK AO2 T01670151
  • 100755Z AUTO 19006KT 10SM CLR 17/16 A3008 RMK AO2 T01720155
  • 100735Z AUTO 19006KT 10SM CLR 17/16 A3008 RMK AO2 T01740157
  • 100715Z AUTO 20005KT 10SM CLR 17/16 A3008 RMK AO2 T01720155
  • 100655Z AUTO 20006KT 10SM CLR 17/16 A3008 RMK AO2 T01710157
  • 100635Z AUTO 22005KT 10SM CLR 16/15 A3008 RMK AO2 T01600149
  • 100615Z AUTO 19004KT 10SM CLR 16/15 A3008 RMK AO2 T01620152
  • 100555Z AUTO 21004KT 10SM CLR 17/16 A3008 RMK AO2 T01660156 10190 20165

TAF N/A



MET'MAP, la Météo Aéronautique d'un coup d'oeil ! - Copyright ORBIFLY Décembre 2007 - Disclaimer

ORBIFLY MET'MAP TEAM :

Programmation & Développement : Alexandra Zaïnal
Sur une idée originale de : Baudouin d'Aumeries
Assistance à la programmation : Marc-Olivier Méhu
Soutien technique & logistique : Manuel Goepfert

Contact : metmap@orbifly.com




SOURCES & CREDITS :

   NOAA       Earth
Advisory